createdAt,value
2023-02-04T00:00:08.295Z,89
2023-02-04T00:02:08.701Z,89
2023-02-04T00:03:08.674Z,89
2023-02-04T00:04:07.865Z,88
2023-02-04T00:05:08.625Z,89
2023-02-04T00:06:07.943Z,88
2023-02-04T00:08:08.854Z,88
2023-02-04T00:09:08.557Z,88
2023-02-04T00:10:08.129Z,88
2023-02-04T00:13:07.976Z,88
2023-02-04T00:14:08.084Z,88
2023-02-04T00:15:08.662Z,88
2023-02-04T00:16:09.078Z,88
2023-02-04T00:17:08.210Z,88
2023-02-04T00:18:08.768Z,88
2023-02-04T00:19:08.373Z,88
2023-02-04T00:20:07.728Z,88
2023-02-04T00:22:08.032Z,87
2023-02-04T00:23:08.619Z,87
2023-02-04T00:24:08.369Z,87
2023-02-04T00:25:08.155Z,87
2023-02-04T00:26:08.708Z,87
2023-02-04T00:27:08.147Z,87
2023-02-04T00:28:08.037Z,87
2023-02-04T00:29:08.456Z,87
2023-02-04T00:30:07.993Z,86
2023-02-04T00:31:08.128Z,86
2023-02-04T00:32:09.175Z,86
2023-02-04T00:33:08.069Z,86
2023-02-04T00:34:08.774Z,86
2023-02-04T00:35:08.236Z,86
2023-02-04T00:36:08.526Z,85
2023-02-04T00:37:08.213Z,85
2023-02-04T00:38:07.853Z,85
2023-02-04T00:39:08.615Z,85
2023-02-04T00:40:07.971Z,85
2023-02-04T00:43:07.825Z,84
2023-02-04T00:44:08.770Z,84
2023-02-04T00:46:08.189Z,84
2023-02-04T00:47:08.511Z,84
2023-02-04T00:48:07.946Z,84
2023-02-04T00:49:08.449Z,84
2023-02-04T00:51:08.519Z,84
2023-02-04T00:52:08.004Z,84
2023-02-04T00:53:07.949Z,84
2023-02-04T00:54:08.458Z,83
2023-02-04T00:55:08.149Z,83
2023-02-04T00:56:08.764Z,83
2023-02-04T00:58:07.915Z,82
2023-02-04T00:59:08.447Z,82
2023-02-04T01:00:07.989Z,82
2023-02-04T01:02:08.614Z,82
2023-02-04T01:03:08.340Z,82
2023-02-04T01:04:08.610Z,82
2023-02-04T01:05:08.181Z,82
2023-02-04T01:06:08.757Z,82
2023-02-04T01:07:08.440Z,81
2023-02-04T01:09:08.426Z,81
2023-02-04T01:10:07.885Z,81
2023-02-04T01:11:08.659Z,81
2023-02-04T01:12:08.300Z,81
2023-02-04T01:13:08.029Z,81
2023-02-04T01:14:08.605Z,81
2023-02-04T01:15:07.904Z,81
2023-02-04T01:16:08.858Z,81
2023-02-04T01:18:08.638Z,80
2023-02-04T01:19:08.090Z,80
2023-02-04T01:20:07.910Z,81
2023-02-04T01:21:08.634Z,81
2023-02-04T01:22:08.140Z,81
2023-02-04T01:23:08.709Z,81
2023-02-04T01:24:08.179Z,81
2023-02-04T01:25:07.942Z,82
2023-02-04T01:26:08.373Z,82
2023-02-04T01:27:08.111Z,82
2023-02-04T01:28:08.697Z,82
2023-02-04T01:29:08.103Z,82
2023-02-04T01:30:08.828Z,82
2023-02-04T01:31:08.419Z,82
2023-02-04T01:32:09.099Z,82
2023-02-04T01:33:08.388Z,82
2023-02-04T01:35:08.409Z,82
2023-02-04T01:36:08.094Z,82
2023-02-04T01:37:07.837Z,83
2023-02-04T01:38:08.203Z,83
2023-02-04T01:39:07.805Z,83
2023-02-04T01:40:08.501Z,83
2023-02-04T01:41:07.979Z,83
2023-02-04T01:42:07.851Z,83
2023-02-04T01:43:08.379Z,83
2023-02-04T01:44:07.938Z,83
2023-02-04T01:45:08.449Z,83
2023-02-04T01:46:08.348Z,83
2023-02-04T01:47:08.773Z,83
2023-02-04T01:48:08.303Z,83
2023-02-04T01:49:08.809Z,83
2023-02-04T01:50:08.430Z,84
2023-02-04T01:51:07.861Z,84
2023-02-04T01:52:08.663Z,84
2023-02-04T01:53:08.266Z,84
2023-02-04T01:54:08.806Z,84
2023-02-04T01:55:08.472Z,84
2023-02-04T01:56:07.974Z,84
2023-02-04T01:58:08.347Z,84
2023-02-04T01:59:07.851Z,84
2023-02-04T02:00:08.407Z,84
2023-02-04T02:01:08.562Z,84
2023-02-04T02:02:08.132Z,84
2023-02-04T02:03:08.727Z,84
2023-02-04T02:05:07.977Z,84
2023-02-04T02:06:08.546Z,84
2023-02-04T02:10:08.267Z,84
2023-02-04T02:12:08.631Z,85
2023-02-04T02:13:08.095Z,85
2023-02-04T02:14:08.883Z,84
2023-02-04T02:15:08.292Z,85
2023-02-04T02:16:08.398Z,85
2023-02-04T02:17:08.349Z,85
2023-02-04T02:18:08.589Z,85
2023-02-04T02:19:08.085Z,85
2023-02-04T02:20:07.942Z,85
2023-02-04T02:21:08.313Z,85
2023-02-04T02:23:08.488Z,85
2023-02-04T02:24:08.000Z,85
2023-02-04T02:25:08.516Z,85
2023-02-04T02:26:08.351Z,85
2023-02-04T02:27:08.096Z,85
2023-02-04T02:29:08.213Z,85
2023-02-04T02:30:07.850Z,85
2023-02-04T02:31:09.268Z,85
2023-02-04T02:32:08.261Z,85
2023-02-04T02:34:08.476Z,85
2023-02-04T02:35:08.139Z,85
2023-02-04T02:36:08.703Z,85
2023-02-04T02:37:08.311Z,85
2023-02-04T02:38:07.927Z,85
2023-02-04T02:39:08.340Z,85
2023-02-04T02:40:08.034Z,85
2023-02-04T02:41:08.870Z,85
2023-02-04T02:42:08.376Z,85
2023-02-04T02:46:08.203Z,85
2023-02-04T02:47:08.341Z,85
2023-02-04T02:48:08.201Z,85
2023-02-04T02:49:08.691Z,85
2023-02-04T02:50:08.244Z,85
2023-02-04T02:51:08.748Z,85
2023-02-04T02:52:08.410Z,86
2023-02-04T02:53:08.031Z,86
2023-02-04T02:54:08.764Z,86
2023-02-04T02:55:08.014Z,86
2023-02-04T02:57:08.256Z,86
2023-02-04T02:59:08.460Z,86
2023-02-04T03:00:08.029Z,86
2023-02-04T03:01:08.113Z,86
2023-02-04T03:02:08.462Z,86
2023-02-04T03:03:07.937Z,86
2023-02-04T03:04:08.591Z,86
2023-02-04T03:05:08.084Z,86
2023-02-04T03:06:08.543Z,86
2023-02-04T03:07:08.133Z,86
2023-02-04T03:10:07.999Z,86
2023-02-04T03:11:08.358Z,86
2023-02-04T03:12:07.865Z,86
2023-02-04T03:13:08.374Z,86
2023-02-04T03:14:08.040Z,86
2023-02-04T03:15:08.526Z,86
2023-02-04T03:16:08.857Z,86
2023-02-04T03:17:08.288Z,86
2023-02-04T03:21:08.729Z,86
2023-02-04T03:22:08.194Z,86
2023-02-04T03:23:08.722Z,86
2023-02-04T03:24:08.302Z,86
2023-02-04T03:25:08.636Z,86
2023-02-04T03:26:08.131Z,86
2023-02-04T03:27:08.816Z,86
2023-02-04T03:28:08.532Z,86
2023-02-04T03:29:07.670Z,86
2023-02-04T03:30:08.454Z,86
2023-02-04T03:33:08.159Z,86
2023-02-04T03:34:08.760Z,86
2023-02-04T03:35:08.165Z,86
2023-02-04T03:36:07.697Z,86
2023-02-04T03:37:08.466Z,86
2023-02-04T03:38:08.103Z,86
2023-02-04T03:39:08.750Z,86
2023-02-04T03:40:08.024Z,86
2023-02-04T03:42:08.077Z,86
2023-02-04T03:43:08.750Z,86
2023-02-04T03:45:08.715Z,86
2023-02-04T03:46:08.166Z,86
2023-02-04T03:47:08.319Z,86
2023-02-04T03:48:08.157Z,86
2023-02-04T03:49:08.541Z,86
2023-02-04T03:50:08.153Z,86
2023-02-04T03:51:07.868Z,86
2023-02-04T03:52:08.433Z,86
2023-02-04T03:53:07.921Z,86
2023-02-04T03:54:08.602Z,86
2023-02-04T03:55:08.047Z,86
2023-02-04T03:56:08.661Z,86
2023-02-04T03:57:08.231Z,86
2023-02-04T03:58:08.571Z,86
2023-02-04T03:59:08.337Z,86
2023-02-04T04:00:08.318Z,86
2023-02-04T04:01:08.268Z,85
2023-02-04T04:03:09.145Z,85
2023-02-04T04:04:08.176Z,85
2023-02-04T04:05:08.703Z,85
2023-02-04T04:06:08.413Z,85
2023-02-04T04:07:07.850Z,85
2023-02-04T04:08:08.583Z,85
2023-02-04T04:09:08.214Z,85
2023-02-04T04:10:08.816Z,85
2023-02-04T04:11:08.316Z,85
2023-02-04T04:12:07.810Z,85
2023-02-04T04:13:08.449Z,85
2023-02-04T04:14:08.011Z,85
2023-02-04T04:15:08.683Z,85
2023-02-04T04:16:08.824Z,85
2023-02-04T04:17:08.201Z,85
2023-02-04T04:19:08.345Z,85
2023-02-04T04:22:08.033Z,85
2023-02-04T04:23:07.906Z,85
2023-02-04T04:24:08.206Z,85
2023-02-04T04:26:08.100Z,85
2023-02-04T04:27:07.812Z,85
2023-02-04T04:28:08.711Z,85
2023-02-04T04:29:07.910Z,85
2023-02-04T04:30:08.561Z,85
2023-02-04T04:31:08.953Z,85
2023-02-04T04:32:07.996Z,85
2023-02-04T04:33:08.712Z,85
2023-02-04T04:34:08.119Z,85
2023-02-04T04:35:08.587Z,84
2023-02-04T04:36:08.103Z,84
2023-02-04T04:37:07.830Z,84
2023-02-04T04:38:08.350Z,84
2023-02-04T04:39:08.087Z,84
2023-02-04T04:40:08.640Z,84
2023-02-04T04:41:08.293Z,84
2023-02-04T04:42:08.750Z,84
2023-02-04T04:43:08.323Z,84
2023-02-04T04:44:07.817Z,84
2023-02-04T04:45:08.610Z,84
2023-02-04T04:46:08.085Z,84
2023-02-04T04:47:08.429Z,84
2023-02-04T04:48:07.957Z,84
2023-02-04T04:49:08.636Z,84
2023-02-04T04:50:08.332Z,84
2023-02-04T04:51:07.910Z,84
2023-02-04T04:52:08.464Z,84
2023-02-04T04:53:07.996Z,84
2023-02-04T04:55:08.134Z,84
2023-02-04T04:56:07.830Z,84
2023-02-04T04:57:08.345Z,84
2023-02-04T04:58:07.955Z,84
2023-02-04T04:59:08.434Z,84
2023-02-04T05:00:07.980Z,84
2023-02-04T05:01:08.766Z,84
2023-02-04T05:02:08.175Z,84
2023-02-04T05:03:08.734Z,83
2023-02-04T05:04:08.266Z,83
2023-02-04T05:05:08.213Z,83
2023-02-04T05:06:08.444Z,83
2023-02-04T05:07:08.251Z,83
2023-02-04T05:08:07.711Z,83
2023-02-04T05:09:08.357Z,83
2023-02-04T05:10:07.973Z,83
2023-02-04T05:11:08.623Z,83
2023-02-04T05:12:08.102Z,83
2023-02-04T05:13:08.872Z,83
2023-02-04T05:14:08.443Z,83
2023-02-04T05:15:07.918Z,83
2023-02-04T05:16:08.908Z,82
2023-02-04T05:17:08.217Z,83
2023-02-04T05:18:08.091Z,83
2023-02-04T05:19:08.589Z,83
2023-02-04T05:20:08.105Z,82
2023-02-04T05:21:08.736Z,82
2023-02-04T05:22:08.226Z,82
2023-02-04T05:23:11.619Z,83
2023-02-04T05:24:08.178Z,83
2023-02-04T05:25:07.736Z,83
2023-02-04T05:26:08.382Z,82
2023-02-04T05:27:07.992Z,82
2023-02-04T05:28:08.882Z,82
2023-02-04T05:31:08.744Z,82
2023-02-04T05:32:08.232Z,82
2023-02-04T05:33:08.527Z,82
2023-02-04T05:35:09.671Z,82
2023-02-04T05:37:08.318Z,82
2023-02-04T05:38:08.619Z,82
2023-02-04T05:39:08.107Z,83
2023-02-04T05:40:07.862Z,83
2023-02-04T05:42:07.916Z,82
2023-02-04T05:43:08.628Z,82
2023-02-04T05:44:08.058Z,82
2023-02-04T05:45:08.612Z,82
2023-02-04T05:46:09.050Z,82
2023-02-04T05:47:08.225Z,82
2023-02-04T05:48:08.647Z,82
2023-02-04T05:50:08.099Z,82
2023-02-04T05:51:08.523Z,82
2023-02-04T05:52:08.009Z,82
2023-02-04T05:53:08.753Z,82
2023-02-04T05:55:08.131Z,82
2023-02-04T05:56:08.603Z,82
2023-02-04T05:57:08.195Z,82
2023-02-04T05:58:08.669Z,82
2023-02-04T05:59:08.389Z,82
2023-02-04T06:00:07.903Z,82
2023-02-04T06:01:08.190Z,82
2023-02-04T06:02:07.836Z,82
2023-02-04T06:03:08.655Z,82
2023-02-04T06:04:08.213Z,82
2023-02-04T06:07:08.323Z,82
2023-02-04T06:08:07.966Z,82
2023-02-04T06:09:08.764Z,82
2023-02-04T06:10:08.283Z,82
2023-02-04T06:11:08.721Z,82
2023-02-04T06:12:08.184Z,82
2023-02-04T06:13:07.984Z,82
2023-02-04T06:14:08.526Z,82
2023-02-04T06:16:08.391Z,82
2023-02-04T06:17:07.918Z,82
2023-02-04T06:18:08.605Z,82
2023-02-04T06:19:08.195Z,82
2023-02-04T06:21:08.279Z,82
2023-02-04T06:22:07.785Z,82
2023-02-04T06:23:08.274Z,82
2023-02-04T06:24:09.547Z,82
2023-02-04T06:25:08.486Z,82
2023-02-04T06:26:07.961Z,82
2023-02-04T06:27:08.439Z,82
2023-02-04T06:28:08.454Z,82
2023-02-04T06:29:07.874Z,82
2023-02-04T06:30:08.527Z,82
2023-02-04T06:31:08.799Z,82
2023-02-04T06:32:08.799Z,82
2023-02-04T06:33:08.278Z,82
2023-02-04T06:34:08.774Z,82
2023-02-04T06:38:08.051Z,82
2023-02-04T06:39:08.436Z,82
2023-02-04T06:40:08.090Z,82
2023-02-04T06:42:08.509Z,82
2023-02-04T06:43:09.277Z,82
2023-02-04T06:44:08.435Z,82
2023-02-04T06:45:08.069Z,82
2023-02-04T06:46:08.742Z,82
2023-02-04T06:47:08.460Z,82
2023-02-04T06:48:07.865Z,82
2023-02-04T06:49:08.443Z,82
2023-02-04T06:50:07.928Z,82
2023-02-04T06:51:08.443Z,82
2023-02-04T06:52:08.008Z,82
2023-02-04T06:53:08.604Z,82
2023-02-04T06:54:08.314Z,82
2023-02-04T06:55:07.778Z,82
2023-02-04T06:56:08.333Z,82
2023-02-04T06:58:08.489Z,82
2023-02-04T06:59:09.747Z,82
2023-02-04T07:00:08.648Z,82
2023-02-04T07:01:08.640Z,82
2023-02-04T07:02:07.981Z,82
2023-02-04T07:03:08.404Z,82
2023-02-04T07:04:08.038Z,82
2023-02-04T07:05:08.507Z,82
2023-02-04T07:06:08.094Z,82
2023-02-04T07:07:08.581Z,82
2023-02-04T07:08:07.951Z,82
2023-02-04T07:09:08.757Z,83
2023-02-04T07:10:08.362Z,83
2023-02-04T07:11:07.836Z,83
2023-02-04T07:12:08.481Z,83
2023-02-04T07:13:08.229Z,83
2023-02-04T07:14:07.936Z,83
2023-02-04T07:15:08.571Z,84
2023-02-04T07:16:08.285Z,84
2023-02-04T07:17:08.650Z,84
2023-02-04T07:18:08.099Z,84
2023-02-04T07:19:08.611Z,84
2023-02-04T07:20:08.306Z,84
2023-02-04T07:21:07.735Z,85
2023-02-04T07:22:08.592Z,85
2023-02-04T07:23:07.920Z,85
2023-02-04T07:24:08.788Z,85
2023-02-04T07:25:08.095Z,85
2023-02-04T07:26:07.698Z,85
2023-02-04T07:27:09.006Z,85
2023-02-04T07:28:07.983Z,85
2023-02-04T07:29:20.822Z,86
2023-02-04T07:30:08.131Z,86
2023-02-04T07:31:08.380Z,86
2023-02-04T07:32:09.099Z,86
2023-02-04T07:33:08.312Z,86
2023-02-04T07:34:07.868Z,86
2023-02-04T07:35:08.397Z,86
2023-02-04T07:37:08.814Z,86
2023-02-04T07:38:07.982Z,86
2023-02-04T07:40:08.327Z,86
2023-02-04T07:41:08.463Z,86
2023-02-04T07:43:08.197Z,86
2023-02-04T07:44:07.889Z,86
2023-02-04T07:45:08.372Z,86
2023-02-04T07:46:08.214Z,86
2023-02-04T07:47:08.358Z,86
2023-02-04T07:48:08.072Z,86
2023-02-04T07:49:08.766Z,86
2023-02-04T07:50:08.300Z,86
2023-02-04T07:51:07.900Z,86
2023-02-04T07:52:08.554Z,87
2023-02-04T07:53:07.892Z,87
2023-02-04T07:54:08.594Z,87
2023-02-04T07:55:08.200Z,86
2023-02-04T07:56:08.463Z,86
2023-02-04T07:57:08.419Z,87
2023-02-04T07:58:08.014Z,87
2023-02-04T07:59:08.572Z,87
2023-02-04T08:00:08.284Z,86
2023-02-04T08:01:07.990Z,87
2023-02-04T08:03:08.362Z,87
2023-02-04T08:04:08.549Z,87
2023-02-04T08:05:08.197Z,86
2023-02-04T08:06:08.881Z,86
2023-02-04T08:07:08.396Z,86
2023-02-04T08:08:07.785Z,86
2023-02-04T08:09:08.407Z,86
2023-02-04T08:10:08.048Z,86
2023-02-04T08:11:08.657Z,86
2023-02-04T08:12:08.067Z,86
2023-02-04T08:13:07.883Z,87
2023-02-04T08:14:08.376Z,87
2023-02-04T08:15:07.761Z,86
2023-02-04T08:16:10.063Z,86
2023-02-04T08:17:08.086Z,86
2023-02-04T08:18:08.694Z,86
2023-02-04T08:19:08.213Z,86
2023-02-04T08:20:07.987Z,86
2023-02-04T08:21:08.333Z,86
2023-02-04T08:22:07.700Z,86
2023-02-04T08:23:08.289Z,86
2023-02-04T08:24:07.806Z,86
2023-02-04T08:26:08.033Z,86
2023-02-04T08:27:08.671Z,86
2023-02-04T08:28:08.537Z,87
2023-02-04T08:29:07.773Z,87
2023-02-04T08:30:08.334Z,87
2023-02-04T08:31:09.014Z,86
2023-02-04T08:32:08.522Z,86
2023-02-04T08:33:08.091Z,86
2023-02-04T08:35:10.384Z,86
2023-02-04T08:36:07.777Z,86
2023-02-04T08:37:08.283Z,86
2023-02-04T08:38:08.088Z,86
2023-02-04T08:39:08.293Z,86
2023-02-04T08:40:08.159Z,86
2023-02-04T08:41:08.532Z,86
2023-02-04T08:42:08.215Z,86
2023-02-04T08:43:08.786Z,86
2023-02-04T08:44:08.335Z,86
2023-02-04T08:45:07.941Z,86
2023-02-04T08:46:08.174Z,86
2023-02-04T08:47:08.759Z,86
2023-02-04T08:48:08.215Z,86
2023-02-04T08:50:08.378Z,86
2023-02-04T08:51:08.004Z,86
2023-02-04T08:52:08.586Z,86
2023-02-04T08:53:08.151Z,86
2023-02-04T08:54:07.996Z,86
2023-02-04T08:55:08.233Z,86
2023-02-04T08:56:07.871Z,86
2023-02-04T08:58:08.157Z,85
2023-02-04T08:59:08.530Z,85
2023-02-04T09:00:08.267Z,85
2023-02-04T09:03:08.721Z,84
2023-02-04T09:04:08.343Z,84
2023-02-04T09:05:07.997Z,84
2023-02-04T09:06:08.807Z,84
2023-02-04T09:07:08.120Z,84
2023-02-04T09:08:08.689Z,84
2023-02-04T09:09:08.219Z,84
2023-02-04T09:10:08.735Z,84
2023-02-04T09:11:08.386Z,83
2023-02-04T09:12:07.965Z,83
2023-02-04T09:14:08.278Z,82
2023-02-04T09:16:08.716Z,82
2023-02-04T09:17:08.164Z,82
2023-02-04T09:18:08.560Z,82
2023-02-04T09:19:08.116Z,82
2023-02-04T09:20:07.902Z,82
2023-02-04T09:21:08.429Z,82
2023-02-04T09:22:08.055Z,82
2023-02-04T09:23:08.526Z,82
2023-02-04T09:25:08.699Z,82
2023-02-04T09:26:07.974Z,81
2023-02-04T09:27:08.861Z,81
2023-02-04T09:28:08.716Z,81
2023-02-04T09:29:07.872Z,82
2023-02-04T09:30:08.468Z,82
2023-02-04T09:31:11.133Z,81
2023-02-04T09:32:08.341Z,81
2023-02-04T09:33:07.739Z,81
2023-02-04T09:34:08.354Z,80
2023-02-04T09:35:07.920Z,80
2023-02-04T09:37:07.922Z,80
2023-02-04T09:38:08.405Z,80
2023-02-04T09:39:08.173Z,80
2023-02-04T09:40:08.548Z,80
2023-02-04T09:41:08.214Z,80
2023-02-04T09:42:08.833Z,80
2023-02-04T09:43:08.249Z,79
2023-02-04T09:44:07.814Z,79
2023-02-04T09:45:08.299Z,79
2023-02-04T09:46:08.136Z,79
2023-02-04T09:47:08.501Z,79
2023-02-04T09:48:10.075Z,79
2023-02-04T09:49:08.540Z,79
2023-02-04T09:51:08.565Z,79
2023-02-04T09:52:08.155Z,79
2023-02-04T09:53:08.709Z,79
2023-02-04T09:54:09.760Z,79
2023-02-04T09:55:08.088Z,79
2023-02-04T09:56:08.649Z,79
2023-02-04T09:57:08.227Z,79
2023-02-04T09:58:08.828Z,79
2023-02-04T09:59:08.334Z,79
2023-02-04T10:00:10.005Z,79
2023-02-04T10:01:08.386Z,78
2023-02-04T10:02:08.678Z,78
2023-02-04T10:04:08.993Z,78
2023-02-04T10:05:08.148Z,78
2023-02-04T10:06:08.852Z,78
2023-02-04T10:07:08.321Z,78
2023-02-04T10:08:07.996Z,78
2023-02-04T10:09:08.626Z,78
2023-02-04T10:10:08.116Z,78
2023-02-04T10:11:08.683Z,78
2023-02-04T10:12:08.222Z,78
2023-02-04T10:13:07.946Z,78
2023-02-04T10:14:08.543Z,78
2023-02-04T10:15:07.929Z,78
2023-02-04T10:16:07.950Z,77
2023-02-04T10:17:08.707Z,77
2023-02-04T10:18:08.082Z,77
2023-02-04T10:19:08.634Z,77
2023-02-04T10:20:08.237Z,77
2023-02-04T10:21:07.783Z,77
2023-02-04T10:23:08.290Z,76
2023-02-04T10:25:08.244Z,75
2023-02-04T10:26:07.777Z,75
2023-02-04T10:27:08.300Z,75
2023-02-04T10:28:08.255Z,75
2023-02-04T10:29:10.920Z,74
2023-02-04T10:30:07.985Z,74
2023-02-04T10:31:08.559Z,74
2023-02-04T10:32:08.383Z,74
2023-02-04T10:33:08.225Z,74
2023-02-04T10:35:08.300Z,74
2023-02-04T10:36:07.935Z,73
2023-02-04T10:37:08.211Z,73
2023-02-04T10:38:08.388Z,74
2023-02-04T10:39:08.785Z,74
2023-02-04T10:40:08.215Z,73
2023-02-04T10:41:07.644Z,72
2023-02-04T10:43:07.831Z,72
2023-02-04T10:44:08.292Z,72
2023-02-04T10:45:08.261Z,72
2023-02-04T10:46:08.343Z,72
2023-02-04T10:48:08.256Z,71
2023-02-04T10:49:08.706Z,71
2023-02-04T10:51:08.083Z,71
2023-02-04T10:52:07.717Z,71
2023-02-04T10:53:08.489Z,71
2023-02-04T10:54:07.969Z,71
2023-02-04T10:55:08.756Z,71
2023-02-04T10:56:08.303Z,70
2023-02-04T10:57:07.855Z,70
2023-02-04T10:58:08.423Z,69
2023-02-04T10:59:08.015Z,70
2023-02-04T11:00:08.344Z,69
2023-02-04T11:01:08.072Z,69
2023-02-04T11:02:08.471Z,69
2023-02-04T11:04:08.637Z,70
2023-02-04T11:05:08.197Z,70
2023-02-04T11:06:08.748Z,70
2023-02-04T11:07:08.207Z,70
2023-02-04T11:08:07.847Z,69
2023-02-04T11:09:08.459Z,69
2023-02-04T11:10:07.929Z,69
2023-02-04T11:12:08.055Z,69
2023-02-04T11:13:08.816Z,68
2023-02-04T11:14:08.602Z,69
2023-02-04T11:15:07.809Z,69
2023-02-04T11:16:08.886Z,69
2023-02-04T11:17:08.098Z,69
2023-02-04T11:18:08.526Z,69
2023-02-04T11:19:08.118Z,69
2023-02-04T11:20:07.643Z,69
2023-02-04T11:21:08.646Z,69
2023-02-04T11:22:08.044Z,69
2023-02-04T11:23:08.670Z,69
2023-02-04T11:24:08.141Z,68
2023-02-04T11:25:08.840Z,68
2023-02-04T11:26:08.381Z,68
2023-02-04T11:27:07.866Z,68
2023-02-04T11:28:08.863Z,68
2023-02-04T11:29:07.884Z,68
2023-02-04T11:30:08.388Z,68
2023-02-04T11:31:08.893Z,68
2023-02-04T11:32:08.122Z,68
2023-02-04T11:33:08.652Z,68
2023-02-04T11:34:08.352Z,68
2023-02-04T11:35:07.766Z,68
2023-02-04T11:36:08.335Z,68
2023-02-04T11:37:07.843Z,68
2023-02-04T11:38:08.802Z,68
2023-02-04T11:39:08.067Z,69
2023-02-04T11:40:07.951Z,69
2023-02-04T11:41:08.662Z,68
2023-02-04T11:42:08.047Z,68
2023-02-04T11:43:08.694Z,68
2023-02-04T11:44:08.101Z,68
2023-02-04T11:45:07.972Z,68
2023-02-04T11:46:08.938Z,68
2023-02-04T11:47:08.171Z,67
2023-02-04T11:48:07.835Z,67
2023-02-04T11:49:08.497Z,67
2023-02-04T11:50:08.157Z,67
2023-02-04T11:51:07.903Z,67
2023-02-04T11:52:08.200Z,67
2023-02-04T11:53:07.919Z,68
2023-02-04T11:54:08.362Z,68
2023-02-04T11:55:07.885Z,68
2023-02-04T11:56:08.573Z,67
2023-02-04T11:57:08.157Z,67
2023-02-04T11:58:08.650Z,67
2023-02-04T11:59:08.379Z,67
2023-02-04T12:00:07.846Z,67
2023-02-04T12:01:07.818Z,66
2023-02-04T12:02:08.405Z,66
2023-02-04T12:03:08.394Z,66
2023-02-04T12:04:09.028Z,66
2023-02-04T12:05:08.124Z,66
2023-02-04T12:06:08.723Z,66
2023-02-04T12:07:08.127Z,65
2023-02-04T12:08:09.717Z,65
2023-02-04T12:10:07.781Z,65
2023-02-04T12:11:08.271Z,66
2023-02-04T12:12:07.974Z,66
2023-02-04T12:13:08.496Z,66
2023-02-04T12:14:08.002Z,66
2023-02-04T12:15:08.736Z,66
2023-02-04T12:16:08.795Z,66
2023-02-04T12:17:07.882Z,67
2023-02-04T12:18:08.705Z,67
2023-02-04T12:19:08.013Z,66
2023-02-04T12:20:08.712Z,66
2023-02-04T12:21:08.293Z,65
2023-02-04T12:22:08.017Z,65
2023-02-04T12:23:08.553Z,65
2023-02-04T12:24:08.143Z,65
2023-02-04T12:25:08.430Z,65
2023-02-04T12:26:10.611Z,65
2023-02-04T12:27:07.709Z,64
2023-02-04T12:28:08.775Z,65
2023-02-04T12:29:08.022Z,65
2023-02-04T12:30:08.577Z,64
2023-02-04T12:31:08.983Z,64
2023-02-04T12:33:08.227Z,64
2023-02-04T12:34:07.800Z,64
2023-02-04T12:35:08.492Z,64
2023-02-04T12:36:08.008Z,64
2023-02-04T12:37:08.491Z,64
2023-02-04T12:38:08.037Z,64
2023-02-04T12:39:08.569Z,64
2023-02-04T12:40:08.234Z,64
2023-02-04T12:41:08.719Z,64
2023-02-04T12:42:08.245Z,64
2023-02-04T12:43:08.739Z,64
2023-02-04T12:44:08.402Z,64
2023-02-04T12:46:08.265Z,64
2023-02-04T12:48:08.365Z,64
2023-02-04T12:49:09.781Z,64
2023-02-04T12:50:08.521Z,64
2023-02-04T12:51:08.110Z,64
2023-02-04T12:52:08.721Z,64
2023-02-04T12:54:07.830Z,64
2023-02-04T12:55:08.494Z,64
2023-02-04T12:56:08.137Z,64
2023-02-04T12:57:08.941Z,64
2023-02-04T12:58:08.168Z,64
2023-02-04T12:59:08.768Z,64
2023-02-04T13:00:08.339Z,64
2023-02-04T13:01:11.009Z,64
2023-02-04T13:02:08.597Z,64
2023-02-04T13:03:07.881Z,64
2023-02-04T13:04:08.409Z,64
2023-02-04T13:05:08.145Z,64
2023-02-04T13:06:08.622Z,63
2023-02-04T13:07:09.972Z,63
2023-02-04T13:08:07.847Z,63
2023-02-04T13:09:08.372Z,63
2023-02-04T13:10:07.973Z,63
2023-02-04T13:11:08.587Z,63
2023-02-04T13:12:08.625Z,63
2023-02-04T13:13:10.801Z,63
2023-02-04T13:14:07.762Z,63
2023-02-04T13:15:08.336Z,63
2023-02-04T13:16:08.375Z,63
2023-02-04T13:17:07.826Z,63
2023-02-04T13:18:08.261Z,63
2023-02-04T13:19:07.909Z,63
2023-02-04T13:20:08.500Z,63
2023-02-04T13:21:08.128Z,63
2023-02-04T13:22:08.490Z,63
2023-02-04T13:23:08.083Z,63
2023-02-04T13:25:10.337Z,63
2023-02-04T13:26:07.816Z,63
2023-02-04T13:27:08.426Z,63
2023-02-04T13:28:08.022Z,63
2023-02-04T13:29:08.494Z,63
2023-02-04T13:30:08.064Z,63
2023-02-04T13:31:10.983Z,63
2023-02-04T13:32:08.198Z,64
2023-02-04T13:33:07.968Z,64
2023-02-04T13:34:08.631Z,64
2023-02-04T13:35:08.373Z,64
2023-02-04T13:36:07.993Z,64
2023-02-04T13:37:07.875Z,64
2023-02-04T13:39:07.826Z,64
2023-02-04T13:40:08.470Z,64
2023-02-04T13:41:08.155Z,64
2023-02-04T13:42:10.618Z,64
2023-02-04T13:43:08.389Z,64
2023-02-04T13:44:07.955Z,64
2023-02-04T13:45:08.403Z,64
2023-02-04T13:46:08.097Z,64
2023-02-04T13:47:08.344Z,65
2023-02-04T13:48:07.685Z,64
2023-02-04T13:49:08.440Z,64
2023-02-04T13:50:08.086Z,64
2023-02-04T13:51:08.747Z,64
2023-02-04T13:52:08.086Z,64
2023-02-04T13:53:07.913Z,64
2023-02-04T13:54:08.710Z,64
2023-02-04T13:56:07.843Z,64
2023-02-04T13:57:08.527Z,64
2023-02-04T13:58:08.041Z,64
2023-02-04T13:59:08.725Z,65
2023-02-04T14:00:08.180Z,65
2023-02-04T14:01:08.473Z,64
2023-02-04T14:02:08.228Z,64
2023-02-04T14:03:08.464Z,64
2023-02-04T14:04:08.095Z,64
2023-02-04T14:05:08.269Z,64
2023-02-04T14:06:08.118Z,64
2023-02-04T14:07:08.590Z,64
2023-02-04T14:08:08.193Z,64
2023-02-04T14:10:08.401Z,64
2023-02-04T14:11:07.810Z,64
2023-02-04T14:12:08.497Z,64
2023-02-04T14:13:08.078Z,64
2023-02-04T14:14:08.675Z,64
2023-02-04T14:15:08.263Z,64
2023-02-04T14:16:08.837Z,64
2023-02-04T14:17:08.344Z,64
2023-02-04T14:18:07.674Z,64
2023-02-04T14:19:08.447Z,64
2023-02-04T14:21:07.805Z,64
2023-02-04T14:22:08.487Z,64
2023-02-04T14:23:08.074Z,64
2023-02-04T14:24:08.673Z,64
2023-02-04T14:25:08.267Z,65
2023-02-04T14:26:08.708Z,65
2023-02-04T14:28:08.388Z,65
2023-02-04T14:29:08.556Z,65
2023-02-04T14:30:08.232Z,65
2023-02-04T14:33:08.381Z,65
2023-02-04T14:34:07.792Z,65
2023-02-04T14:35:08.278Z,65
2023-02-04T14:36:07.937Z,65
2023-02-04T14:38:07.927Z,65
2023-02-04T14:39:08.585Z,65
2023-02-04T14:40:08.393Z,65
2023-02-04T14:41:08.096Z,65
2023-02-04T14:42:08.398Z,65
2023-02-04T14:45:08.096Z,65
2023-02-04T14:46:10.241Z,65
2023-02-04T14:47:08.568Z,66
2023-02-04T14:48:08.145Z,66
2023-02-04T14:49:08.607Z,66
2023-02-04T14:51:07.736Z,66
2023-02-04T14:52:10.253Z,66
2023-02-04T14:53:07.969Z,66
2023-02-04T14:54:08.605Z,66
2023-02-04T14:55:08.314Z,66
2023-02-04T14:56:07.781Z,66
2023-02-04T14:57:08.312Z,66
2023-02-04T14:58:08.216Z,66
2023-02-04T14:59:08.398Z,67
2023-02-04T15:00:08.525Z,67
2023-02-04T15:01:08.494Z,67
2023-02-04T15:02:08.217Z,67
2023-02-04T15:03:08.347Z,67
2023-02-04T15:04:08.024Z,67
2023-02-04T15:05:08.361Z,67
2023-02-04T15:07:08.471Z,67
2023-02-04T15:08:08.173Z,67
2023-02-04T15:09:08.734Z,67
2023-02-04T15:10:08.360Z,67
2023-02-04T15:11:08.124Z,67
2023-02-04T15:12:08.641Z,67
2023-02-04T15:13:08.309Z,67
2023-02-04T15:14:08.717Z,67
2023-02-04T15:15:08.178Z,67
2023-02-04T15:16:10.063Z,67
2023-02-04T15:17:08.641Z,67
2023-02-04T15:18:08.109Z,67
2023-02-04T15:19:08.457Z,67
2023-02-04T15:20:08.041Z,67
2023-02-04T15:21:08.751Z,67
2023-02-04T15:22:08.315Z,67
2023-02-04T15:23:07.856Z,67
2023-02-04T15:24:08.622Z,67
2023-02-04T15:25:08.033Z,67
2023-02-04T15:26:08.607Z,67
2023-02-04T15:27:08.403Z,67
2023-02-04T15:28:09.799Z,67
2023-02-04T15:29:08.675Z,67
2023-02-04T15:30:08.224Z,67
2023-02-04T15:31:09.342Z,67
2023-02-04T15:33:07.776Z,67
2023-02-04T15:34:08.435Z,67
2023-02-04T15:35:08.315Z,67
2023-02-04T15:36:08.691Z,67
2023-02-04T15:38:07.856Z,67
2023-02-04T15:39:08.402Z,67
2023-02-04T15:40:08.198Z,67
2023-02-04T15:41:08.613Z,67
2023-02-04T15:43:08.640Z,67
2023-02-04T15:44:08.255Z,67
2023-02-04T15:45:08.028Z,67
2023-02-04T15:46:08.371Z,67
2023-02-04T15:47:10.533Z,67
2023-02-04T15:48:08.266Z,67
2023-02-04T15:49:07.861Z,67
2023-02-04T15:50:08.660Z,67
2023-02-04T15:51:08.071Z,67
2023-02-04T15:52:24.893Z,67
2023-02-04T15:53:08.426Z,67
2023-02-04T15:54:07.760Z,67
2023-02-04T15:55:08.216Z,67
2023-02-04T15:56:07.883Z,67
2023-02-04T15:57:08.356Z,67
2023-02-04T15:58:07.902Z,67
2023-02-04T15:59:08.919Z,67